createdAt,value
2019-06-15T00:00:37.226Z,10.17
2019-06-15T00:03:06.429Z,11.73
2019-06-15T00:05:42.705Z,14.10
2019-06-15T00:08:11.831Z,26.40
2019-06-15T00:10:47.581Z,26.37
2019-06-15T00:13:16.759Z,18.17
2019-06-15T00:15:45.881Z,19.37
2019-06-15T00:18:21.493Z,12.50
2019-06-15T00:20:50.576Z,10.40
2019-06-15T00:23:26.497Z,9.57
2019-06-15T00:25:55.619Z,11.53
2019-06-15T00:28:33.531Z,15.20
2019-06-15T00:31:02.651Z,12.00
2019-06-15T00:33:46.141Z,10.17
2019-06-15T00:36:21.585Z,11.27
2019-06-15T00:38:57.899Z,10.20
2019-06-15T00:41:27.024Z,10.20
2019-06-15T00:43:56.147Z,17.20
2019-06-15T00:46:31.661Z,28.50
2019-06-15T00:49:07.537Z,17.50
2019-06-15T00:51:36.672Z,16.20
2019-06-15T00:54:19.159Z,12.67
2019-06-15T00:56:48.281Z,19.73
2019-06-15T00:59:17.387Z,15.17
2019-06-15T01:01:53.140Z,13.23
2019-06-15T01:04:24.215Z,9.97
2019-06-15T01:06:59.676Z,16.37
2019-06-15T01:09:28.893Z,14.53
2019-06-15T01:12:04.422Z,15.50
2019-06-15T01:14:33.557Z,16.97
2019-06-15T01:17:02.680Z,16.80
2019-06-15T01:19:39.051Z,9.67
2019-06-15T01:22:08.165Z,10.60
2019-06-15T01:24:43.971Z,11.70
2019-06-15T01:27:13.091Z,13.53
2019-06-15T01:29:49.162Z,11.13
2019-06-15T01:32:18.337Z,30.10
2019-06-15T01:35:02.011Z,28.00
2019-06-15T01:37:37.297Z,20.90
2019-06-15T01:40:13.463Z,16.50
2019-06-15T01:42:42.640Z,12.20
2019-06-15T01:45:12.360Z,10.40
2019-06-15T01:47:48.458Z,9.87
2019-06-15T01:50:17.857Z,16.40
2019-06-15T01:52:53.996Z,19.03
2019-06-15T01:55:29.840Z,17.23
2019-06-15T01:58:05.463Z,14.17
2019-06-15T02:00:35.494Z,13.80
2019-06-15T02:03:04.652Z,11.57
2019-06-15T02:05:41.001Z,13.60
2019-06-15T02:08:10.122Z,9.90
2019-06-15T02:10:46.834Z,14.83
2019-06-15T02:13:16.031Z,10.50
2019-06-15T02:15:51.545Z,11.07
2019-06-15T02:18:20.659Z,10.77
2019-06-15T02:20:49.770Z,10.10
2019-06-15T02:23:25.571Z,10.00
2019-06-15T02:25:54.766Z,14.57
2019-06-15T02:28:23.853Z,12.30
2019-06-15T02:30:59.164Z,10.57
2019-06-15T02:33:28.277Z,10.60
2019-06-15T02:36:10.471Z,12.43
2019-06-15T02:38:39.603Z,11.97
2019-06-15T02:41:09.033Z,12.33
2019-06-15T02:43:44.752Z,12.47
2019-06-15T02:46:13.778Z,11.33
2019-06-15T02:48:49.631Z,14.93
2019-06-15T02:51:26.267Z,11.17
2019-06-15T02:53:55.535Z,12.17
2019-06-15T02:56:38.057Z,13.53
2019-06-15T02:59:07.249Z,12.30
2019-06-15T03:01:36.370Z,12.47
2019-06-15T03:04:12.309Z,15.57
2019-06-15T03:06:41.426Z,15.63
2019-06-15T03:09:17.069Z,13.30
2019-06-15T03:11:46.761Z,14.03
2019-06-15T03:14:16.007Z,13.50
2019-06-15T03:16:51.619Z,13.00
2019-06-15T03:19:20.812Z,13.70
2019-06-15T03:21:56.371Z,15.23
2019-06-15T03:24:25.589Z,12.83
2019-06-15T03:27:01.163Z,13.10
2019-06-15T03:29:30.284Z,15.23
2019-06-15T03:31:59.444Z,14.37
2019-06-15T03:34:34.829Z,13.10
2019-06-15T03:37:10.857Z,14.00
2019-06-15T03:39:46.486Z,12.77
2019-06-15T03:42:15.585Z,13.53
2019-06-15T03:44:44.687Z,17.40
2019-06-15T03:47:20.371Z,11.97
2019-06-15T03:49:49.624Z,16.83
2019-06-15T03:52:18.745Z,12.43
2019-06-15T03:54:54.757Z,13.60
2019-06-15T03:57:30.109Z,12.80
2019-06-15T04:00:06.303Z,13.67
2019-06-15T04:02:36.539Z,15.07
2019-06-15T04:05:05.895Z,13.03
2019-06-15T04:07:41.515Z,13.13
2019-06-15T04:10:10.723Z,13.47
2019-06-15T04:12:46.942Z,14.87
2019-06-15T04:15:16.240Z,13.80
2019-06-15T04:17:51.690Z,13.83
2019-06-15T04:20:20.790Z,13.13
2019-06-15T04:22:49.936Z,12.13
2019-06-15T04:25:25.996Z,14.40
2019-06-15T04:28:02.738Z,11.43
2019-06-15T04:30:31.980Z,11.70
2019-06-15T04:33:01.132Z,10.70
2019-06-15T04:35:37.261Z,14.73
2019-06-15T04:38:13.514Z,13.07
2019-06-15T04:40:49.136Z,13.50
2019-06-15T04:43:18.274Z,13.53
2019-06-15T04:45:53.783Z,12.70
2019-06-15T04:48:23.022Z,13.13
2019-06-15T04:50:52.116Z,16.73
2019-06-15T04:53:28.049Z,19.90
2019-06-15T04:55:57.197Z,18.67
2019-06-15T04:58:39.664Z,14.60
2019-06-15T05:01:09.736Z,20.77
2019-06-15T05:03:45.320Z,20.23
2019-06-15T05:06:14.453Z,16.03
2019-06-15T05:08:50.187Z,16.37
2019-06-15T05:11:19.345Z,16.50
2019-06-15T05:13:48.486Z,15.37
2019-06-15T05:16:24.516Z,17.27
2019-06-15T05:18:53.656Z,16.00
2019-06-15T05:21:29.881Z,16.77
2019-06-15T05:23:59.069Z,18.20
2019-06-15T05:26:34.807Z,18.23
2019-06-15T05:29:04.137Z,17.83
2019-06-15T05:31:33.345Z,16.03
2019-06-15T05:34:09.131Z,14.73
2019-06-15T05:36:45.195Z,15.27
2019-06-15T05:39:27.918Z,14.13
2019-06-15T05:41:57.053Z,15.23
2019-06-15T05:44:33.273Z,16.40
2019-06-15T05:47:02.417Z,15.13
2019-06-15T05:49:31.536Z,12.93
2019-06-15T05:52:06.887Z,13.17
2019-06-15T05:54:36.079Z,12.63
2019-06-15T05:57:21.913Z,15.47
2019-06-15T05:59:49.443Z,14.20
2019-06-15T06:02:21.588Z,14.20
2019-06-15T06:04:56.379Z,12.77
2019-06-15T06:07:25.558Z,11.77
2019-06-15T06:09:54.747Z,15.20
2019-06-15T06:12:30.084Z,14.87
2019-06-15T06:14:59.322Z,13.37
2019-06-15T06:17:36.491Z,14.87
2019-06-15T06:20:06.755Z,20.27
2019-06-15T06:22:36.000Z,18.77
2019-06-15T06:25:12.201Z,18.57
2019-06-15T06:27:41.332Z,20.63
2019-06-15T06:30:20.769Z,21.87
2019-06-15T06:32:51.607Z,21.53
2019-06-15T06:35:27.644Z,21.50
2019-06-15T06:38:03.849Z,20.40
2019-06-15T06:40:46.383Z,19.50
2019-06-15T06:43:15.600Z,19.13
2019-06-15T06:45:51.720Z,19.30
2019-06-15T06:48:20.877Z,18.83
2019-06-15T06:50:56.227Z,19.93
2019-06-15T06:53:25.466Z,17.00
2019-06-15T06:56:01.787Z,18.20
2019-06-15T06:58:38.205Z,13.83
2019-06-15T07:01:14.622Z,10.23
2019-06-15T07:03:43.800Z,10.50
2019-06-15T07:06:13.026Z,10.87
2019-06-15T07:08:48.473Z,10.23
2019-06-15T07:11:17.614Z,12.23
2019-06-15T07:13:52.873Z,9.77
2019-06-15T07:16:22.049Z,9.20
2019-06-15T07:18:51.557Z,10.50
2019-06-15T07:21:26.781Z,9.00
2019-06-15T07:23:55.817Z,10.33
2019-06-15T07:26:32.046Z,7.33
2019-06-15T07:29:01.223Z,13.33
2019-06-15T07:31:30.399Z,6.53
2019-06-15T07:34:05.941Z,5.97
2019-06-15T07:36:35.083Z,10.03
2019-06-15T07:39:20.225Z,8.03
2019-06-15T07:41:55.761Z,11.40
2019-06-15T07:44:31.409Z,6.53
2019-06-15T07:47:02.975Z,8.73
2019-06-15T07:49:31.583Z,6.53
2019-06-15T07:52:08.763Z,6.13
2019-06-15T07:54:37.884Z,6.93
2019-06-15T07:57:17.719Z,7.13
2019-06-15T07:59:53.214Z,8.17
2019-06-15T08:02:29.486Z,6.03
2019-06-15T08:04:58.686Z,6.63
2019-06-15T08:07:27.792Z,6.70
2019-06-15T08:10:04.368Z,8.60
2019-06-15T08:12:33.471Z,7.07
2019-06-15T08:15:08.834Z,7.10
2019-06-15T08:17:38.015Z,6.57
2019-06-15T08:20:09.390Z,6.87
2019-06-15T08:22:47.390Z,6.33
2019-06-15T08:25:16.595Z,5.53
2019-06-15T08:27:51.958Z,4.23
2019-06-15T08:30:27.757Z,4.57
2019-06-15T08:33:03.673Z,2.57
2019-06-15T08:35:32.769Z,2.53
2019-06-15T08:38:08.189Z,5.20
2019-06-15T08:40:44.344Z,3.40
2019-06-15T08:43:19.819Z,2.57
2019-06-15T08:45:49.055Z,3.53
2019-06-15T08:48:18.263Z,3.67
2019-06-15T08:50:54.124Z,4.10
2019-06-15T08:53:23.295Z,2.27
2019-06-15T08:55:59.573Z,2.50
2019-06-15T08:58:29.161Z,3.73
2019-06-15T09:01:12.235Z,5.00
2019-06-15T09:03:41.369Z,2.53
2019-06-15T09:06:10.522Z,2.13
2019-06-15T09:08:46.577Z,3.40
2019-06-15T09:11:15.812Z,3.10
2019-06-15T09:13:56.213Z,2.83
2019-06-15T09:16:25.880Z,2.33
2019-06-15T09:18:57.436Z,3.60
2019-06-15T09:21:32.365Z,4.47
2019-06-15T09:24:01.620Z,2.13
2019-06-15T09:26:37.748Z,3.90
2019-06-15T09:29:11.360Z,4.27
2019-06-15T09:31:46.430Z,4.83
2019-06-15T09:34:19.437Z,3.80
2019-06-15T09:36:55.694Z,4.30
2019-06-15T09:39:34.243Z,4.03
2019-06-15T09:42:17.088Z,2.00
2019-06-15T09:44:47.768Z,2.90
2019-06-15T09:47:23.333Z,3.23
2019-06-15T09:49:52.577Z,4.37
2019-06-15T09:52:21.773Z,5.73
2019-06-15T09:54:57.967Z,2.90
2019-06-15T09:57:27.293Z,4.67
2019-06-15T10:00:03.049Z,3.53
2019-06-15T10:02:38.964Z,6.80
2019-06-15T10:05:16.003Z,3.07
2019-06-15T10:07:45.333Z,4.90
2019-06-15T10:10:22.347Z,2.90
2019-06-15T10:12:51.770Z,3.97
2019-06-15T10:15:21.321Z,2.40
2019-06-15T10:17:56.973Z,1.63
2019-06-15T10:20:26.233Z,2.20
2019-06-15T10:23:02.313Z,2.70
2019-06-15T10:25:31.461Z,2.43
2019-06-15T10:28:00.614Z,3.70
2019-06-15T10:30:37.033Z,3.30
2019-06-15T10:33:06.221Z,1.87
2019-06-15T10:35:41.859Z,3.37
2019-06-15T10:38:11.265Z,2.37
2019-06-15T10:41:09.370Z,4.53
2019-06-15T10:43:38.535Z,2.23
2019-06-15T10:46:14.685Z,4.17
2019-06-15T10:48:46.926Z,2.43
2019-06-15T10:51:16.159Z,5.07
2019-06-15T10:53:51.739Z,2.80
2019-06-15T10:56:21.022Z,3.30
2019-06-15T10:58:57.416Z,4.93
2019-06-15T11:01:26.771Z,3.20
2019-06-15T11:04:10.168Z,3.63
2019-06-15T11:06:39.473Z,3.90
2019-06-15T11:09:09.516Z,6.00
2019-06-15T11:11:45.176Z,2.80
2019-06-15T11:14:14.415Z,3.60
2019-06-15T11:16:49.748Z,2.50
2019-06-15T11:19:19.046Z,4.00
2019-06-15T11:21:48.239Z,3.00
2019-06-15T11:24:24.056Z,3.00
2019-06-15T11:26:53.384Z,2.93
2019-06-15T11:29:30.793Z,5.73
2019-06-15T11:32:01.524Z,2.77
2019-06-15T11:34:30.744Z,5.07
2019-06-15T11:37:06.216Z,6.17
2019-06-15T11:39:36.837Z,5.63
2019-06-15T11:42:45.727Z,2.77
2019-06-15T11:45:15.070Z,4.90
2019-06-15T11:47:44.277Z,3.60
2019-06-15T11:50:20.911Z,5.10
2019-06-15T11:52:51.706Z,2.93
2019-06-15T11:55:39.217Z,2.97
2019-06-15T11:58:01.926Z,4.93
2019-06-15T12:00:41.376Z,4.90
2019-06-15T12:03:18.332Z,4.80
2019-06-15T12:05:56.652Z,3.00
2019-06-15T12:08:27.131Z,5.17
2019-06-15T12:10:56.420Z,6.47
2019-06-15T12:13:32.240Z,3.63
2019-06-15T12:16:04.892Z,2.53
2019-06-15T12:18:34.062Z,3.47
2019-06-15T12:21:10.589Z,4.43
2019-06-15T12:23:39.700Z,3.30
2019-06-15T12:26:21.668Z,2.97
2019-06-15T12:29:19.479Z,5.20
2019-06-15T12:31:55.096Z,8.43
2019-06-15T12:34:24.396Z,3.07
2019-06-15T12:37:00.667Z,3.77
2019-06-15T12:39:29.810Z,3.63
2019-06-15T12:42:13.211Z,4.20
2019-06-15T12:44:51.210Z,4.13
2019-06-15T12:47:27.342Z,5.00
2019-06-15T12:49:56.518Z,5.37
2019-06-15T12:52:32.041Z,6.47
2019-06-15T12:55:01.320Z,3.43
2019-06-15T12:57:30.558Z,6.53
2019-06-15T13:00:06.665Z,4.17
2019-06-15T13:02:38.285Z,4.00
2019-06-15T13:05:22.252Z,4.67
2019-06-15T13:07:51.530Z,3.87
2019-06-15T13:10:27.386Z,5.60
2019-06-15T13:12:56.537Z,3.70
2019-06-15T13:15:25.790Z,3.10
2019-06-15T13:18:02.036Z,3.70
2019-06-15T13:20:31.310Z,4.00
2019-06-15T13:23:07.494Z,5.00
2019-06-15T13:25:36.738Z,4.33
2019-06-15T13:28:12.912Z,4.53
2019-06-15T13:30:42.090Z,3.83
2019-06-15T13:33:18.437Z,4.57
2019-06-15T13:35:49.177Z,3.67
2019-06-15T13:38:19.050Z,5.23
2019-06-15T13:40:55.916Z,4.80
2019-06-15T13:43:31.851Z,5.00
2019-06-15T13:46:31.924Z,3.93
2019-06-15T13:52:03.126Z,4.53
2019-06-15T13:54:34.078Z,4.73
2019-06-15T13:57:14.576Z,5.00
2019-06-15T14:00:07.934Z,7.37
2019-06-15T14:02:50.583Z,4.53
2019-06-15T14:05:40.313Z,4.60
2019-06-15T14:08:16.280Z,6.10
2019-06-15T14:11:08.862Z,5.53
2019-06-15T14:16:37.535Z,5.80
2019-06-15T14:19:13.064Z,4.80
2019-06-15T14:21:42.476Z,5.23
2019-06-15T14:24:18.304Z,4.30
2019-06-15T14:26:47.955Z,6.03
2019-06-15T14:29:21.382Z,4.70
2019-06-15T14:31:57.071Z,4.37
2019-06-15T14:34:26.292Z,4.60
2019-06-15T14:37:21.030Z,7.00
2019-06-15T14:39:50.500Z,9.33
2019-06-15T14:42:33.994Z,4.80
2019-06-15T14:45:03.248Z,7.40
2019-06-15T14:47:38.750Z,6.33
2019-06-15T14:50:08.690Z,5.90
2019-06-15T14:52:39.613Z,6.73
2019-06-15T14:55:16.101Z,8.57
2019-06-15T14:57:46.313Z,8.03
2019-06-15T15:00:23.702Z,6.37
2019-06-15T15:02:53.050Z,7.60
2019-06-15T15:05:30.363Z,6.47
2019-06-15T15:08:09.805Z,7.20
2019-06-15T15:10:46.155Z,7.00
2019-06-15T15:13:15.382Z,5.20
2019-06-15T15:15:46.665Z,25.53
2019-06-15T15:18:22.203Z,13.50
2019-06-15T15:21:10.810Z,8.27
2019-06-15T15:23:49.431Z,10.20
2019-06-15T15:30:11.671Z,1164.47
2019-06-15T15:32:42.642Z,813.37
2019-06-15T15:35:20.073Z,1999.90
2019-06-15T15:37:52.707Z,673.17
2019-06-15T15:40:29.075Z,1125.17
2019-06-15T15:42:58.825Z,1988.80
2019-06-15T15:45:30.370Z,1104.47
2019-06-15T15:48:06.978Z,365.97
2019-06-15T15:50:37.033Z,49.77
2019-06-15T15:53:13.053Z,26.40
2019-06-15T15:55:42.252Z,77.90
2019-06-15T15:58:18.478Z,74.10
2019-06-15T16:00:51.502Z,121.57
2019-06-15T16:03:20.648Z,298.60
2019-06-15T16:05:56.625Z,609.50
2019-06-15T16:08:33.278Z,435.43
2019-06-15T16:11:10.770Z,147.50
2019-06-15T16:13:40.024Z,18.03
2019-06-15T16:16:09.303Z,27.23
2019-06-15T16:18:46.853Z,6.90
2019-06-15T16:21:16.855Z,7.10
2019-06-15T16:23:58.381Z,7.00
2019-06-15T16:26:27.305Z,5.90
2019-06-15T16:29:03.754Z,5.97
2019-06-15T16:31:42.110Z,6.83
2019-06-15T16:34:17.915Z,6.50
2019-06-15T16:36:47.247Z,6.67
2019-06-15T16:39:16.827Z,5.60
2019-06-15T16:41:56.136Z,8.20
2019-06-15T16:44:25.537Z,7.57
2019-06-15T16:47:01.291Z,5.50
2019-06-15T16:49:30.741Z,9.63
2019-06-15T16:52:00.135Z,6.43
2019-06-15T16:54:36.828Z,5.40
2019-06-15T16:57:06.081Z,7.63
2019-06-15T16:59:42.163Z,8.33
2019-06-15T17:02:11.423Z,6.80
2019-06-15T17:04:47.527Z,6.60
2019-06-15T17:07:17.491Z,6.33
2019-06-15T17:10:00.233Z,5.67
2019-06-15T17:12:37.238Z,7.87
2019-06-15T17:15:12.530Z,8.03
2019-06-15T17:17:41.779Z,12.20
2019-06-15T17:20:11.708Z,8.27
2019-06-15T17:22:47.389Z,6.47
2019-06-15T17:25:16.737Z,6.90
2019-06-15T17:27:56.310Z,8.27
2019-06-15T17:30:34.017Z,6.60
2019-06-15T17:33:12.508Z,10.50
2019-06-15T17:35:55.081Z,7.53
2019-06-15T17:38:13.218Z,12.50
2019-06-15T17:40:49.307Z,8.60
2019-06-15T17:43:18.491Z,18.27
2019-06-15T17:45:56.519Z,20.23
2019-06-15T17:48:25.825Z,12.80
2019-06-15T17:51:27.098Z,26.63
2019-06-15T17:53:56.481Z,7.83
2019-06-15T17:56:26.776Z,15.90
2019-06-15T17:59:02.672Z,15.60
2019-06-15T18:01:36.427Z,8.87
2019-06-15T18:04:10.419Z,8.70
2019-06-15T18:06:40.669Z,14.23
2019-06-15T18:09:25.789Z,8.90
2019-06-15T18:11:56.977Z,13.13
2019-06-15T18:14:26.405Z,11.10
2019-06-15T18:17:04.018Z,9.20
2019-06-15T18:19:39.923Z,11.20
2019-06-15T18:22:09.207Z,7.90
2019-06-15T18:24:38.398Z,12.47
2019-06-15T18:27:16.968Z,7.00
2019-06-15T18:29:46.411Z,5.23
2019-06-15T18:32:29.231Z,5.70
2019-06-15T18:34:58.502Z,8.00
2019-06-15T18:37:36.919Z,8.00
2019-06-15T18:40:07.030Z,6.33
2019-06-15T18:42:46.348Z,6.37
2019-06-15T18:45:16.695Z,6.47
2019-06-15T18:47:47.182Z,7.17
2019-06-15T18:50:31.254Z,7.10
2019-06-15T18:53:00.561Z,7.73
2019-06-15T18:55:36.510Z,8.00
2019-06-15T18:58:06.022Z,6.37
2019-06-15T19:00:37.034Z,10.37
2019-06-15T19:03:12.896Z,10.77
2019-06-15T19:05:42.372Z,12.10
2019-06-15T19:08:18.534Z,11.83
2019-06-15T19:10:56.242Z,13.37
2019-06-15T19:13:32.391Z,14.33
2019-06-15T19:16:03.711Z,7.37
2019-06-15T19:18:39.915Z,8.30
2019-06-15T19:21:09.228Z,10.07
2019-06-15T19:23:38.392Z,7.87
2019-06-15T19:26:16.481Z,8.03
2019-06-15T19:28:47.054Z,8.97
2019-06-15T19:31:23.902Z,11.60
2019-06-15T19:34:00.524Z,7.50
2019-06-15T19:36:36.625Z,5.77
2019-06-15T19:39:07.723Z,7.63
2019-06-15T19:41:46.000Z,6.27
2019-06-15T19:44:16.392Z,7.50
2019-06-15T19:46:47.631Z,8.17
2019-06-15T19:49:25.777Z,6.10
2019-06-15T19:51:56.489Z,5.03
2019-06-15T19:54:40.905Z,5.90
2019-06-15T19:57:11.923Z,5.20
2019-06-15T19:59:42.811Z,5.60
2019-06-15T20:02:18.515Z,7.63
2019-06-15T20:05:00.365Z,5.33
2019-06-15T20:07:26.617Z,8.10
2019-06-15T20:10:02.972Z,6.50
2019-06-15T20:12:38.230Z,6.90
2019-06-15T20:15:07.706Z,5.13
2019-06-15T20:17:36.957Z,4.77
2019-06-15T20:20:14.047Z,5.03
2019-06-15T20:22:43.457Z,6.17
2019-06-15T20:25:19.697Z,8.27
2019-06-15T20:27:49.784Z,6.40
2019-06-15T20:30:26.099Z,6.47
2019-06-15T20:32:56.890Z,8.97
2019-06-15T20:35:26.471Z,5.43
2019-06-15T20:38:04.970Z,5.27
2019-06-15T20:40:36.509Z,8.10
2019-06-15T20:43:13.225Z,5.40
2019-06-15T20:45:46.725Z,5.43
2019-06-15T20:48:26.852Z,5.47
2019-06-15T20:50:56.767Z,6.13
2019-06-15T20:53:40.675Z,5.40
2019-06-15T20:56:17.078Z,6.10
2019-06-15T20:58:57.214Z,5.17
2019-06-15T21:01:28.602Z,8.00
2019-06-15T21:04:07.372Z,5.90
2019-06-15T21:06:37.347Z,5.17
2019-06-15T21:09:08.261Z,4.70
2019-06-15T21:11:50.698Z,5.00
2019-06-15T21:14:20.567Z,5.83
2019-06-15T21:16:56.921Z,7.20
2019-06-15T21:19:26.352Z,11.67
2019-06-15T21:22:03.085Z,6.70
2019-06-15T21:24:32.454Z,7.37
2019-06-15T21:27:08.163Z,5.97
2019-06-15T21:29:37.514Z,6.27
2019-06-15T21:32:07.003Z,15.67
2019-06-15T21:34:43.138Z,12.20
2019-06-15T21:37:12.327Z,9.60
2019-06-15T21:39:48.598Z,7.53
2019-06-15T21:42:17.771Z,18.50
2019-06-15T21:44:47.269Z,7.60
2019-06-15T21:47:25.950Z,8.53
2019-06-15T21:49:56.527Z,7.00
2019-06-15T21:52:32.756Z,6.40
2019-06-15T21:55:10.230Z,9.30
2019-06-15T21:57:53.303Z,10.93
2019-06-15T22:00:37.201Z,17.03
2019-06-15T22:03:13.661Z,15.87
2019-06-15T22:05:46.056Z,30.03
2019-06-15T22:08:16.912Z,32.90
2019-06-15T22:10:59.137Z,24.30
2019-06-15T22:13:28.429Z,16.50
2019-06-15T22:16:06.936Z,28.83
2019-06-15T22:18:36.537Z,28.17
2019-06-15T22:21:12.100Z,23.83
2019-06-15T22:23:41.218Z,12.63
2019-06-15T22:26:10.649Z,13.40
2019-06-15T22:28:47.173Z,19.10
2019-06-15T22:31:17.156Z,27.80
2019-06-15T22:33:53.352Z,16.80
2019-06-15T22:36:25.582Z,8.40
2019-06-15T22:39:00.423Z,8.80
2019-06-15T22:41:31.612Z,8.93
2019-06-15T22:44:00.801Z,7.33
2019-06-15T22:46:36.931Z,10.60
2019-06-15T22:49:31.515Z,8.20
2019-06-15T22:52:00.709Z,12.07
2019-06-15T22:55:06.082Z,8.60
2019-06-15T23:00:41.191Z,12.20
2019-06-15T23:03:10.427Z,10.27
2019-06-15T23:05:39.687Z,10.30
2019-06-15T23:08:16.351Z,9.90
2019-06-15T23:10:46.844Z,24.73
2019-06-15T23:13:29.701Z,17.17
2019-06-15T23:15:58.807Z,8.87
2019-06-15T23:18:34.329Z,8.63
2019-06-15T23:21:06.368Z,11.83
2019-06-15T23:23:36.230Z,6.50
2019-06-15T23:26:11.872Z,7.43
2019-06-15T23:28:41.023Z,6.60
2019-06-15T23:31:17.365Z,5.93
2019-06-15T23:33:46.939Z,5.50
2019-06-15T23:36:31.089Z,7.70
2019-06-15T23:39:00.283Z,7.00
2019-06-15T23:41:29.483Z,6.30
2019-06-15T23:44:04.859Z,7.13
2019-06-15T23:46:36.008Z,6.60
2019-06-15T23:49:11.780Z,7.80
2019-06-15T23:51:40.892Z,10.53
2019-06-15T23:54:16.979Z,10.13
2019-06-15T23:56:52.954Z,12.87
2019-06-15T23:59:28.245Z,20.83
